Time;durP1;ratioP1;P1;durP2;ratioP2;P2;SDS_P1;SDS_P2;PMS_P1;PMS_P2;Temp;Humidity;BMP_temperature;BMP_pressure;BME280_temperature;BME280_humidity;BME280_pressure;Samples;Min_cycle;Max_cycle;Signal;HPM_P1;HPM_P2
2021/08/02 00:01:01;;;;;;;3.75;1.80;;;21.60;60.90;;;;;;5052340;28;20044;-60
2021/08/02 00:03:38;;;;;;;3.38;1.88;;;21.60;61.00;;;;;;5052710;28;20540;-59
2021/08/02 00:06:08;;;;;;;3.92;1.98;;;21.60;61.00;;;;;;5052957;28;20029;-60
2021/08/02 00:08:34;;;;;;;4.15;2.05;;;21.60;61.00;;;;;;5052629;28;20017;-59
2021/08/02 00:11:01;;;;;;;3.17;2.10;;;21.60;61.00;;;;;;5052549;28;20495;-60
2021/08/02 00:13:35;;;;;;;4.97;2.42;;;21.60;61.00;;;;;;5052557;28;20029;-60
2021/08/02 00:16:04;;;;;;;3.80;2.00;;;21.60;61.00;;;;;;5052483;28;20086;-60
2021/08/02 00:18:31;;;;;;;4.20;2.22;;;21.50;61.10;;;;;;5052496;28;20461;-59
2021/08/02 00:21:03;;;;;;;3.65;2.45;;;21.50;61.10;;;;;;5052548;28;20057;-59
2021/08/02 00:23:28;;;;;;;4.25;2.20;;;21.50;61.10;;;;;;5052571;28;20487;-59
2021/08/02 00:26:00;;;;;;;3.60;2.05;;;21.50;61.10;;;;;;5052445;28;20025;-59
2021/08/02 00:28:27;;;;;;;5.00;2.55;;;21.50;61.10;;;;;;5052539;28;20035;-59
2021/08/02 00:30:54;;;;;;;3.78;2.20;;;21.50;61.10;;;;;;5052477;28;20112;-60
2021/08/02 00:33:19;;;;;;;4.95;2.50;;;21.50;61.20;;;;;;5052348;28;20041;-60
2021/08/02 00:35:53;;;;;;;3.80;2.15;;;21.50;61.10;;;;;;5052470;28;20033;-60
2021/08/02 00:38:26;;;;;;;5.50;2.53;;;21.50;61.20;;;;;;5052465;28;20438;-60
2021/08/02 00:41:08;;;;;;;4.07;2.25;;;21.50;61.20;;;;;;5052503;28;20036;-60
2021/08/02 00:44:05;;;;;;;4.25;2.10;;;21.50;61.20;;;;;;5052380;28;20025;-60
2021/08/02 00:46:38;;;;;;;4.53;2.28;;;21.50;61.20;;;;;;5052290;28;20028;-59
2021/08/02 00:49:06;;;;;;;4.78;2.05;;;21.50;61.30;;;;;;5052283;28;20043;-59
2021/08/02 00:51:42;;;;;;;5.32;2.83;;;21.50;61.30;;;;;;5052280;28;20431;-59
2021/08/02 00:54:08;;;;;;;4.78;2.50;;;21.50;61.30;;;;;;5052433;28;20021;-59
2021/08/02 00:56:35;;;;;;;5.50;3.00;;;21.50;61.40;;;;;;5052205;28;20037;-60
2021/08/02 00:59:04;;;;;;;5.22;2.55;;;21.50;61.40;;;;;;5052250;28;20025;-61
2021/08/02 01:01:31;;;;;;;5.00;2.47;;;21.40;61.40;;;;;;5052115;28;20541;-60
2021/08/02 01:03:58;;;;;;;5.15;2.65;;;21.40;61.50;;;;;;5052174;28;20021;-60
2021/08/02 01:06:30;;;;;;;5.13;2.58;;;21.40;61.40;;;;;;5052168;28;20028;-61
2021/08/02 01:08:59;;;;;;;6.25;3.10;;;21.40;61.50;;;;;;5052164;28;20139;-60
2021/08/02 01:11:25;;;;;;;4.38;2.55;;;21.40;61.50;;;;;;5053021;28;20025;-60
2021/08/02 01:13:51;;;;;;;6.00;2.85;;;21.40;61.50;;;;;;5055704;28;20024;-60
2021/08/02 01:16:18;;;;;;;5.40;3.03;;;21.40;61.50;;;;;;5055447;28;20034;-60
2021/08/02 01:18:47;;;;;;;4.45;2.40;;;21.30;61.60;;;;;;5055756;28;20383;-60
2021/08/02 01:21:14;;;;;;;5.60;2.65;;;21.40;61.60;;;;;;5055512;28;20060;-59
2021/08/02 01:23:41;;;;;;;5.20;3.00;;;21.40;61.60;;;;;;5055386;28;20052;-60
2021/08/02 01:26:26;;;;;;;4.97;2.63;;;21.30;61.60;;;;;;5055287;28;20029;-60
2021/08/02 01:29:29;;;;;;;6.20;2.92;;;21.30;61.60;;;;;;5044067;28;20033;-60
2021/08/02 01:31:55;;;;;;;4.75;2.80;;;21.30;61.70;;;;;;5055350;28;20025;-60
2021/08/02 01:34:20;;;;;;;4.82;2.50;;;21.30;61.70;;;;;;5055241;28;20071;-60
2021/08/02 01:36:46;;;;;;;5.60;3.05;;;21.40;61.70;;;;;;5055161;28;20431;-60
2021/08/02 01:39:11;;;;;;;5.32;2.95;;;21.30;61.70;;;;;;5065095;28;20044;-60
2021/08/02 01:41:37;;;;;;;4.72;2.67;;;21.30;61.70;;;;;;5064188;28;20033;-61
2021/08/02 01:44:02;;;;;;;5.15;2.90;;;21.30;61.70;;;;;;5055205;28;20028;-59
2021/08/02 01:46:43;;;;;;;4.45;2.53;;;21.30;61.80;;;;;;5055086;28;20029;-59
2021/08/02 01:49:23;;;;;;;5.18;2.75;;;21.30;61.80;;;;;;5054994;28;20021;-60
2021/08/02 01:51:52;;;;;;;5.38;2.92;;;21.30;61.70;;;;;;5055020;28;20029;-61
2021/08/02 01:54:34;;;;;;;4.95;2.72;;;21.30;61.70;;;;;;5054970;28;20021;-59
2021/08/02 01:57:14;;;;;;;4.65;2.75;;;21.30;61.70;;;;;;5054741;28;20064;-60
2021/08/02 01:59:45;;;;;;;4.97;2.40;;;21.30;61.80;;;;;;5054787;28;20028;-60
2021/08/02 02:02:13;;;;;;;5.10;2.80;;;21.30;61.70;;;;;;5054931;28;20029;-60
2021/08/02 02:04:47;;;;;;;5.32;2.95;;;21.30;61.70;;;;;;5054947;28;20060;-59
2021/08/02 02:07:13;;;;;;;4.85;2.60;;;21.30;61.70;;;;;;5054766;28;20112;-59
2021/08/02 02:09:40;;;;;;;5.28;2.75;;;21.20;61.70;;;;;;5054622;28;20025;-59
2021/08/02 02:12:08;;;;;;;4.20;2.28;;;21.20;61.70;;;;;;5054510;28;20056;-60
2021/08/02 02:14:38;;;;;;;5.07;2.70;;;21.30;61.70;;;;;;5054708;28;20029;-60
2021/08/02 02:17:05;;;;;;;5.40;2.90;;;21.20;61.80;;;;;;5054350;28;20037;-60
2021/08/02 02:19:33;;;;;;;5.10;2.58;;;21.20;61.80;;;;;;5054400;28;20021;-60
2021/08/02 02:22:00;;;;;;;4.68;2.45;;;21.20;61.80;;;;;;5053996;28;20029;-59
2021/08/02 02:24:26;;;;;;;5.43;2.65;;;21.20;61.80;;;;;;5054280;28;20162;-59
2021/08/02 02:26:54;;;;;;;4.25;2.47;;;21.20;61.80;;;;;;5054471;28;20090;-59
2021/08/02 02:29:21;;;;;;;4.45;2.40;;;21.20;61.80;;;;;;5054438;28;20021;-60
2021/08/02 02:31:48;;;;;;;4.50;2.38;;;21.20;61.80;;;;;;5054110;28;20104;-59
2021/08/02 02:34:15;;;;;;;5.05;2.45;;;21.20;61.80;;;;;;5053774;28;20582;-59
2021/08/02 02:36:43;;;;;;;5.90;2.65;;;21.20;61.80;;;;;;5053965;28;20033;-59
2021/08/02 02:39:10;;;;;;;4.03;2.33;;;21.20;61.80;;;;;;5053759;28;20048;-59
2021/08/02 02:41:36;;;;;;;5.07;2.58;;;21.20;61.70;;;;;;5054188;28;20542;-59
2021/08/02 02:44:04;;;;;;;4.28;2.45;;;21.20;61.80;;;;;;5053809;28;20059;-59
2021/08/02 02:46:30;;;;;;;4.85;2.35;;;21.20;61.80;;;;;;5053834;28;20112;-59
2021/08/02 02:48:57;;;;;;;4.30;2.28;;;21.20;61.80;;;;;;5053677;28;20029;-59
2021/08/02 02:51:26;;;;;;;4.38;2.30;;;21.20;61.80;;;;;;5053570;28;20079;-59
2021/08/02 02:53:53;;;;;;;5.07;2.83;;;21.20;61.90;;;;;;5053808;28;20108;-59
2021/08/02 02:56:19;;;;;;;4.63;2.40;;;21.20;61.80;;;;;;5053520;28;20025;-60
2021/08/02 02:58:45;;;;;;;5.80;2.47;;;21.20;61.80;;;;;;5053565;28;20496;-59
2021/08/02 03:01:15;;;;;;;6.53;2.92;;;21.10;61.90;;;;;;5053580;28;20024;-59
2021/08/02 03:03:45;;;;;;;5.45;2.70;;;21.10;61.90;;;;;;5053529;28;20496;-59
2021/08/02 03:06:12;;;;;;;5.20;2.90;;;21.10;61.90;;;;;;5053423;28;20549;-59
2021/08/02 03:08:39;;;;;;;4.95;2.45;;;21.10;61.90;;;;;;5053308;28;20027;-59
2021/08/02 03:11:05;;;;;;;3.97;2.40;;;21.10;61.90;;;;;;5053427;28;20033;-60
2021/08/02 03:13:31;;;;;;;5.25;2.60;;;21.10;61.90;;;;;;5053379;28;20025;-59
2021/08/02 03:15:57;;;;;;;5.00;2.70;;;21.10;61.90;;;;;;5053461;28;20380;-59
2021/08/02 03:18:23;;;;;;;4.63;2.35;;;21.10;61.90;;;;;;5053375;28;20025;-59
2021/08/02 03:20:48;;;;;;;5.18;2.40;;;21.10;61.90;;;;;;5053229;28;20017;-59
2021/08/02 03:23:57;;;;;;;4.75;2.50;;;21.10;61.90;;;;;;5053030;28;20029;-59
2021/08/02 03:26:33;;;;;;;6.13;2.80;;;21.10;61.90;;;;;;5040925;28;20163;-59
2021/08/02 03:29:06;;;;;;;5.18;2.60;;;21.10;61.90;;;;;;5053085;28;20460;-59
2021/08/02 03:31:38;;;;;;;4.72;2.42;;;21.10;61.90;;;;;;5054826;28;20029;-59
2021/08/02 03:34:06;;;;;;;4.00;2.30;;;21.00;62.00;;;;;;5052174;28;20041;-59
2021/08/02 03:36:33;;;;;;;5.03;2.67;;;21.10;62.00;;;;;;5052944;28;20166;-59
2021/08/02 03:38:59;;;;;;;4.97;2.53;;;21.10;62.00;;;;;;5052904;28;20473;-59
2021/08/02 03:41:26;;;;;;;5.00;2.55;;;21.00;62.00;;;;;;5053057;28;20104;-59
2021/08/02 03:43:52;;;;;;;5.07;2.30;;;21.10;62.00;;;;;;5052750;28;20106;-59
2021/08/02 03:46:19;;;;;;;4.38;2.50;;;21.00;62.00;;;;;;5052821;28;20116;-59
2021/08/02 03:48:45;;;;;;;4.40;2.20;;;21.00;62.00;;;;;;5052948;28;20029;-59
2021/08/02 03:51:11;;;;;;;4.63;2.33;;;21.00;62.00;;;;;;5052741;28;20025;-59
2021/08/02 03:53:46;;;;;;;4.68;2.50;;;21.00;62.00;;;;;;5052738;28;20033;-59
2021/08/02 03:56:14;;;;;;;5.70;2.65;;;21.00;62.00;;;;;;5052689;28;20060;-59
2021/08/02 03:58:39;;;;;;;3.97;2.20;;;21.00;62.00;;;;;;5052597;28;20059;-59
2021/08/02 04:01:05;;;;;;;3.97;2.10;;;21.00;61.90;;;;;;5052746;28;20048;-59
2021/08/02 04:03:31;;;;;;;4.50;2.55;;;21.00;62.00;;;;;;5052924;28;20039;-59
2021/08/02 04:05:59;;;;;;;7.57;2.30;;;21.00;62.00;;;;;;5052584;28;20591;-59
2021/08/02 04:08:26;;;;;;;5.10;2.50;;;21.00;62.00;;;;;;5052573;28;20029;-59
2021/08/02 04:10:51;;;;;;;4.70;2.22;;;21.00;62.00;;;;;;5052533;28;20029;-60
2021/08/02 04:13:19;;;;;;;4.18;2.45;;;21.00;62.00;;;;;;5052353;28;20095;-59
2021/08/02 04:15:44;;;;;;;4.82;2.20;;;21.00;62.00;;;;;;5052630;28;20480;-59
2021/08/02 04:18:10;;;;;;;3.50;2.00;;;21.00;62.00;;;;;;5053243;28;20071;-59
2021/08/02 04:20:36;;;;;;;4.05;2.28;;;21.00;62.00;;;;;;5052803;28;20088;-59
2021/08/02 04:23:01;;;;;;;4.70;2.25;;;21.00;62.00;;;;;;5053440;28;20449;-59
2021/08/02 04:25:26;;;;;;;5.25;2.47;;;21.00;62.00;;;;;;5052797;28;20065;-59
2021/08/02 04:27:52;;;;;;;4.88;2.28;;;21.00;62.00;;;;;;5053326;28;20025;-59
2021/08/02 04:30:18;;;;;;;4.85;2.25;;;21.00;62.00;;;;;;5053465;28;20377;-59
2021/08/02 04:32:45;;;;;;;4.78;2.30;;;21.00;62.00;;;;;;5053318;28;20143;-59
2021/08/02 04:35:10;;;;;;;5.20;2.42;;;21.00;61.90;;;;;;5052557;28;20060;-59
2021/08/02 04:37:36;;;;;;;4.95;2.47;;;21.00;61.90;;;;;;5051127;28;20045;-59
2021/08/02 04:40:02;;;;;;;4.15;2.17;;;21.00;61.90;;;;;;5052728;28;20454;-58
2021/08/02 04:42:28;;;;;;;4.20;2.10;;;21.00;61.90;;;;;;5052919;28;20028;-59
2021/08/02 04:44:53;;;;;;;5.00;2.60;;;21.00;61.90;;;;;;5052732;28;20522;-58
2021/08/02 04:47:19;;;;;;;4.07;2.30;;;21.00;61.80;;;;;;5056440;28;20513;-58
2021/08/02 04:49:44;;;;;;;4.30;2.13;;;21.00;61.90;;;;;;5056297;28;20021;-59
2021/08/02 04:52:09;;;;;;;4.70;2.10;;;21.00;61.90;;;;;;5056906;28;20033;-59
2021/08/02 04:54:35;;;;;;;4.20;2.05;;;21.00;61.90;;;;;;5056166;28;20029;-59
2021/08/02 04:57:00;;;;;;;5.63;2.38;;;21.00;61.90;;;;;;5055864;28;20086;-59
2021/08/02 04:59:26;;;;;;;4.03;2.03;;;21.00;61.80;;;;;;5056508;28;20043;-59
2021/08/02 05:01:52;;;;;;;5.05;2.42;;;21.00;61.80;;;;;;5054855;28;20425;-59
2021/08/02 05:04:17;;;;;;;3.47;2.00;;;21.00;61.80;;;;;;5056130;28;20029;-58
2021/08/02 05:06:42;;;;;;;4.20;2.10;;;21.00;61.80;;;;;;5056093;28;20029;-59
2021/08/02 05:09:08;;;;;;;3.70;1.90;;;21.00;61.90;;;;;;5055800;28;20017;-58
2021/08/02 05:11:33;;;;;;;4.53;2.15;;;21.00;61.90;;;;;;5055844;28;20029;-59
2021/08/02 05:13:59;;;;;;;4.63;2.58;;;21.00;61.80;;;;;;5055837;28;20017;-59
2021/08/02 05:16:25;;;;;;;5.10;2.33;;;21.00;61.80;;;;;;5055570;28;20064;-59
2021/08/02 05:18:50;;;;;;;4.18;2.15;;;21.00;61.80;;;;;;5055458;28;20013;-59
2021/08/02 05:21:15;;;;;;;3.80;2.00;;;21.00;61.80;;;;;;5055516;28;20108;-59
2021/08/02 05:23:41;;;;;;;4.35;2.17;;;21.00;61.80;;;;;;5055650;28;20025;-59
2021/08/02 05:26:06;;;;;;;4.00;2.10;;;21.00;61.80;;;;;;5055283;28;20522;-59
2021/08/02 05:28:32;;;;;;;4.38;2.35;;;21.00;61.80;;;;;;5055432;28;20079;-60
2021/08/02 05:30:57;;;;;;;4.07;2.15;;;21.00;61.80;;;;;;5055180;28;20049;-59
2021/08/02 05:33:23;;;;;;;3.95;2.10;;;21.00;61.80;;;;;;5055012;28;20045;-58
2021/08/02 05:35:49;;;;;;;4.38;2.40;;;21.00;61.80;;;;;;5055128;28;20112;-59
2021/08/02 05:38:14;;;;;;;3.67;1.88;;;21.00;61.80;;;;;;5055440;28;20064;-59
2021/08/02 05:40:39;;;;;;;4.40;2.30;;;21.00;61.80;;;;;;5055142;28;20053;-58
2021/08/02 05:43:05;;;;;;;4.55;2.10;;;21.00;61.80;;;;;;5055409;28;20078;-59
2021/08/02 05:45:30;;;;;;;4.47;2.15;;;21.00;61.80;;;;;;5055205;28;20499;-58
2021/08/02 05:47:56;;;;;;;3.72;2.03;;;21.00;61.70;;;;;;5055212;28;20478;-58
2021/08/02 05:50:22;;;;;;;3.35;1.70;;;21.00;61.80;;;;;;5055107;28;20025;-59
2021/08/02 05:52:48;;;;;;;7.13;2.55;;;21.00;61.70;;;;;;5054966;28;20025;-59
2021/08/02 05:55:14;;;;;;;4.68;1.98;;;21.00;61.70;;;;;;5055196;28;20468;-59
2021/08/02 05:57:40;;;;;;;3.22;1.80;;;21.00;61.70;;;;;;5054030;28;20032;-59
2021/08/02 06:00:07;;;;;;;4.00;1.83;;;21.00;61.70;;;;;;5054789;28;20021;-58
2021/08/02 06:02:33;;;;;;;6.10;2.05;;;21.00;61.70;;;;;;5054775;28;20021;-59
2021/08/02 06:04:58;;;;;;;4.30;2.25;;;21.00;61.60;;;;;;5054649;28;20043;-59
2021/08/02 06:07:24;;;;;;;5.57;2.50;;;21.00;61.60;;;;;;5054736;28;20075;-58
2021/08/02 06:09:51;;;;;;;3.67;1.95;;;21.00;61.60;;;;;;5054504;28;20025;-59
2021/08/02 06:12:16;;;;;;;4.00;1.92;;;21.00;61.60;;;;;;5054738;28;20025;-59
2021/08/02 06:14:42;;;;;;;3.60;1.90;;;21.00;61.60;;;;;;5054612;28;20028;-59
2021/08/02 06:17:07;;;;;;;3.38;1.98;;;21.00;61.60;;;;;;5054435;28;20037;-58
2021/08/02 06:19:33;;;;;;;4.07;1.80;;;21.00;61.60;;;;;;5054440;28;20067;-59
2021/08/02 06:21:58;;;;;;;4.35;1.95;;;21.00;61.60;;;;;;5054276;28;20029;-59
2021/08/02 06:24:24;;;;;;;4.90;1.92;;;21.00;61.50;;;;;;5052177;28;20049;-59
2021/08/02 06:26:49;;;;;;;3.53;1.80;;;21.10;61.50;;;;;;5051091;28;20153;-59
2021/08/02 06:29:15;;;;;;;3.78;1.92;;;21.10;61.40;;;;;;5044038;28;20382;-59
2021/08/02 06:31:40;;;;;;;4.40;2.00;;;21.10;61.40;;;;;;5046436;28;20054;-59
2021/08/02 06:34:06;;;;;;;4.15;2.00;;;21.10;61.40;;;;;;5043503;28;20119;-60
2021/08/02 06:36:31;;;;;;;13.30;2.33;;;21.10;61.30;;;;;;5047690;28;20048;-60
2021/08/02 06:38:57;;;;;;;3.78;1.75;;;21.10;61.30;;;;;;5052828;28;20021;-59
2021/08/02 06:41:22;;;;;;;3.97;1.92;;;21.10;61.20;;;;;;5052038;28;20091;-59
2021/08/02 06:43:48;;;;;;;4.82;2.10;;;21.20;61.30;;;;;;5057992;28;20025;-59
2021/08/02 06:46:13;;;;;;;3.92;2.05;;;21.10;61.30;;;;;;5057491;28;20026;-60
2021/08/02 06:48:40;;;;;;;4.55;2.08;;;21.10;61.30;;;;;;5044462;28;20021;-59
2021/08/02 06:51:06;;;;;;;3.88;2.13;;;21.10;61.40;;;;;;5061911;28;20025;-59
2021/08/02 06:53:32;;;;;;;5.60;1.98;;;21.20;61.30;;;;;;5052180;28;20492;-59
2021/08/02 06:55:57;;;;;;;4.70;2.20;;;21.10;61.20;;;;;;5046335;28;20025;-59
2021/08/02 06:58:23;;;;;;;4.85;1.80;;;21.20;61.40;;;;;;5054574;28;20032;-60
2021/08/02 07:00:48;;;;;;;4.35;2.08;;;21.20;61.30;;;;;;5050268;28;20112;-59
2021/08/02 07:03:14;;;;;;;4.93;2.15;;;21.20;61.30;;;;;;5071865;28;20376;-60
2021/08/02 07:05:41;;;;;;;4.20;1.90;;;21.20;61.50;;;;;;5057613;28;20016;-60
2021/08/02 07:08:06;;;;;;;3.50;1.90;;;21.10;61.40;;;;;;5063536;28;20032;-60
2021/08/02 07:10:32;;;;;;;4.20;1.98;;;21.20;61.30;;;;;;5043654;28;20025;-59
2021/08/02 07:12:58;;;;;;;4.53;1.90;;;21.20;61.20;;;;;;5056791;28;20029;-60
2021/08/02 07:15:23;;;;;;;3.67;1.90;;;21.30;61.10;;;;;;5055941;28;20099;-60
2021/08/02 07:17:49;;;;;;;4.45;2.00;;;21.30;61.20;;;;;;5051382;28;20041;-60
2021/08/02 07:20:14;;;;;;;4.65;2.00;;;21.20;61.00;;;;;;5054764;28;20032;-60
2021/08/02 07:22:40;;;;;;;4.78;1.60;;;21.30;61.00;;;;;;5051850;28;20028;-60
2021/08/02 07:25:06;;;;;;;4.13;1.90;;;21.30;61.00;;;;;;5060855;28;20031;-60
2021/08/02 07:27:31;;;;;;;4.10;1.90;;;21.30;60.90;;;;;;5063541;28;20407;-60
2021/08/02 07:29:57;;;;;;;6.47;2.00;;;21.40;60.90;;;;;;5052793;28;20060;-62
2021/08/02 07:32:22;;;;;;;3.75;1.80;;;21.30;60.90;;;;;;5052360;28;20033;-61
2021/08/02 07:34:48;;;;;;;5.35;1.77;;;21.30;60.80;;;;;;5044038;28;20120;-63
2021/08/02 07:37:14;;;;;;;4.70;1.70;;;21.30;60.80;;;;;;5036895;28;20136;-62
2021/08/02 07:39:40;;;;;;;6.00;1.80;;;21.30;61.00;;;;;;5049941;28;20462;-65
2021/08/02 07:42:06;;;;;;;4.05;1.83;;;21.30;60.90;;;;;;5051248;28;20029;-61
2021/08/02 07:44:32;;;;;;;3.28;1.58;;;21.40;60.90;;;;;;5044208;28;20477;-62
2021/08/02 07:46:57;;;;;;;4.57;1.60;;;21.30;61.00;;;;;;5027528;28;20041;-62
2021/08/02 07:49:23;;;;;;;3.03;1.52;;;21.30;61.10;;;;;;5044175;28;20025;-60
2021/08/02 07:51:48;;;;;;;3.67;1.42;;;21.40;61.00;;;;;;5051357;28;20472;-60
2021/08/02 07:54:14;;;;;;;5.38;2.05;;;21.40;61.00;;;;;;5042134;28;20411;-61
2021/08/02 07:56:39;;;;;;;6.60;2.15;;;21.40;61.00;;;;;;5035451;28;20094;-59
2021/08/02 07:59:05;;;;;;;4.20;1.83;;;21.40;61.00;;;;;;5043537;28;20037;-63
2021/08/02 08:01:30;;;;;;;4.45;1.70;;;21.40;61.20;;;;;;5047201;28;20087;-61
2021/08/02 08:03:56;;;;;;;5.30;1.80;;;21.50;61.00;;;;;;5050261;28;20024;-61
2021/08/02 08:06:21;;;;;;;4.38;1.70;;;21.40;61.20;;;;;;5042952;28;20044;-58
2021/08/02 08:08:47;;;;;;;5.55;1.90;;;21.50;61.20;;;;;;5041253;28;20029;-61
2021/08/02 08:11:13;;;;;;;7.40;1.88;;;21.50;61.10;;;;;;5056279;28;20032;-61
2021/08/02 08:13:39;;;;;;;5.00;2.15;;;21.50;61.10;;;;;;5062497;28;20074;-63
2021/08/02 08:16:06;;;;;;;3.45;1.50;;;21.50;61.10;;;;;;5050915;28;20033;-61
2021/08/02 08:18:31;;;;;;;3.85;1.63;;;21.50;60.90;;;;;;5047819;28;20041;-61
2021/08/02 08:21:01;;;;;;;3.88;1.55;;;21.50;60.90;;;;;;5061532;28;20020;-61
2021/08/02 08:23:29;;;;;;;3.38;1.52;;;21.50;60.90;;;;;;5068034;28;20044;-62
2021/08/02 08:25:54;;;;;;;5.82;1.70;;;21.50;60.90;;;;;;5061254;28;20028;-61
2021/08/02 08:28:20;;;;;;;3.95;1.55;;;21.50;60.90;;;;;;5063177;28;20033;-62
2021/08/02 08:30:46;;;;;;;5.55;1.90;;;21.50;61.00;;;;;;5060125;28;20357;-62
2021/08/02 08:33:11;;;;;;;4.00;1.60;;;21.60;61.00;;;;;;5061109;28;20032;-61
2021/08/02 08:35:37;;;;;;;3.58;1.38;;;21.60;61.00;;;;;;5054139;28;20067;-62
2021/08/02 08:38:04;;;;;;;4.90;1.83;;;21.60;61.00;;;;;;5067635;28;20483;-63
2021/08/02 08:40:32;;;;;;;3.70;1.55;;;21.60;61.00;;;;;;5058354;28;20079;-62
2021/08/02 08:42:57;;;;;;;3.03;1.52;;;21.60;61.00;;;;;;5059031;28;20086;-61
2021/08/02 08:45:23;;;;;;;4.78;1.55;;;21.60;61.00;;;;;;5067234;28;20025;-61
2021/08/02 08:47:49;;;;;;;3.15;1.48;;;21.60;61.00;;;;;;5064013;28;20028;-61
2021/08/02 08:50:15;;;;;;;2.60;1.40;;;21.70;61.00;;;;;;5056803;28;20044;-62
2021/08/02 08:52:41;;;;;;;3.13;1.50;;;21.60;61.10;;;;;;5066245;28;20480;-60
2021/08/02 08:55:11;;;;;;;2.47;1.15;;;21.60;61.00;;;;;;5068276;28;20032;-61
2021/08/02 08:57:37;;;;;;;4.57;1.58;;;21.70;61.00;;;;;;5057703;28;20036;-62
2021/08/02 09:00:05;;;;;;;3.10;1.33;;;21.70;61.00;;;;;;5049470;28;20123;-63
2021/08/02 09:02:31;;;;;;;3.45;1.42;;;21.70;61.00;;;;;;5071161;28;20024;-62
2021/08/02 09:04:59;;;;;;;5.75;1.50;;;21.70;61.00;;;;;;5053301;28;20032;-60
2021/08/02 09:07:39;;;;;;;4.68;1.33;;;21.70;61.00;;;;;;5050903;28;20066;-59
2021/08/02 09:10:25;;;;;;;3.33;1.60;;;21.70;61.10;;;;;;5047635;28;20392;-60
2021/08/02 09:12:56;;;;;;;4.82;1.40;;;21.70;61.10;;;;;;5037496;28;20032;-59
2021/08/02 09:15:33;;;;;;;3.85;1.50;;;21.80;61.20;;;;;;5052356;28;20033;-60
2021/08/02 09:17:59;;;;;;;4.55;1.27;;;21.80;61.00;;;;;;5048590;28;20506;-59
2021/08/02 09:20:25;;;;;;;2.72;1.25;;;21.80;60.90;;;;;;5044449;28;20025;-59
2021/08/02 09:22:53;;;;;;;4.53;1.60;;;21.90;60.80;;;;;;5040846;28;20469;-59
2021/08/02 09:25:20;;;;;;;6.90;1.60;;;21.90;60.80;;;;;;5049215;28;20112;-59
2021/08/02 09:27:48;;;;;;;4.28;1.75;;;21.90;60.80;;;;;;5033174;28;20021;-59
2021/08/02 09:30:14;;;;;;;4.88;1.20;;;22.00;60.70;;;;;;5048020;28;20357;-65
2021/08/02 09:33:03;;;;;;;7.15;1.80;;;22.00;60.70;;;;;;5058897;28;20020;-62
2021/08/02 09:35:41;;;;;;;10.98;1.50;;;21.90;60.60;;;;;;5047151;28;20056;-63
2021/08/02 09:38:07;;;;;;;4.32;1.40;;;22.00;60.60;;;;;;5035214;28;20075;-63
2021/08/02 09:40:43;;;;;;;4.03;1.33;;;22.00;60.60;;;;;;5058815;28;20048;-61
2021/08/02 09:43:17;;;;;;;3.70;1.30;;;22.00;60.70;;;;;;5049614;28;20029;-63
2021/08/02 09:46:00;;;;;;;4.63;1.25;;;22.00;60.70;;;;;;5046141;28;20014;-62
2021/08/02 09:48:40;;;;;;;4.78;1.80;;;22.00;60.70;;;;;;5034624;28;20037;-62
2021/08/02 09:51:13;;;;;;;3.03;1.30;;;22.00;60.70;;;;;;5054011;28;20491;-61
2021/08/02 09:53:43;;;;;;;4.50;1.40;;;21.90;60.70;;;;;;5064264;28;20036;-59
2021/08/02 09:56:17;;;;;;;3.70;1.48;;;22.00;60.60;;;;;;5050988;28;20025;-59
2021/08/02 09:58:45;;;;;;;5.45;2.05;;;22.00;60.60;;;;;;5039694;28;20037;-59
2021/08/02 10:01:16;;;;;;;4.65;1.02;;;22.00;60.60;;;;;;5061738;28;20526;-59
2021/08/02 10:03:42;;;;;;;6.57;1.48;;;22.00;60.60;;;;;;5050398;28;20078;-59
2021/08/02 10:06:09;;;;;;;3.85;1.40;;;22.00;60.50;;;;;;5060462;28;20032;-59
2021/08/02 10:08:36;;;;;;;4.30;1.42;;;22.00;60.50;;;;;;5043139;28;20036;-61
2021/08/02 10:11:05;;;;;;;3.05;1.20;;;22.00;60.40;;;;;;5050788;28;20167;-62
2021/08/02 10:13:37;;;;;;;3.38;1.25;;;22.00;60.40;;;;;;5036350;28;20033;-60
2021/08/02 10:16:06;;;;;;;2.72;1.27;;;22.00;60.40;;;;;;5051117;28;20119;-61
2021/08/02 10:18:32;;;;;;;4.75;1.48;;;22.00;60.30;;;;;;5056161;28;20083;-61
2021/08/02 10:21:09;;;;;;;3.55;1.50;;;22.00;60.20;;;;;;5034059;28;20030;-60
2021/08/02 10:23:38;;;;;;;2.83;1.10;;;22.00;60.20;;;;;;5055098;28;20032;-61
2021/08/02 10:26:03;;;;;;;3.50;1.50;;;22.10;60.10;;;;;;5047705;28;20026;-62
2021/08/02 10:28:29;;;;;;;4.93;1.40;;;22.10;60.10;;;;;;5053818;28;20033;-62
2021/08/02 10:31:06;;;;;;;3.70;1.20;;;22.00;60.10;;;;;;5049838;28;20231;-59
2021/08/02 10:33:36;;;;;;;4.35;1.45;;;22.00;60.10;;;;;;5038330;28;20025;-63
2021/08/02 10:36:15;;;;;;;6.10;1.27;;;22.00;60.10;;;;;;5044150;28;20033;-61
2021/08/02 10:38:43;;;;;;;5.18;1.73;;;22.10;60.20;;;;;;5040721;28;20488;-63
2021/08/02 10:41:09;;;;;;;3.67;1.38;;;22.00;60.10;;;;;;5043544;28;20451;-62
2021/08/02 10:43:37;;;;;;;5.30;1.50;;;22.10;60.20;;;;;;5048820;28;20116;-61
2021/08/02 10:46:18;;;;;;;5.78;1.30;;;22.00;60.10;;;;;;5048659;28;20025;-61
2021/08/02 10:48:44;;;;;;;3.30;1.20;;;22.00;60.10;;;;;;5052796;28;20025;-60
2021/08/02 10:51:13;;;;;;;10.68;1.35;;;22.10;60.10;;;;;;5032671;28;20024;-64
2021/08/02 10:53:39;;;;;;;2.83;1.30;;;22.10;60.00;;;;;;5054412;28;20027;-61
2021/08/02 10:56:05;;;;;;;5.72;1.60;;;22.20;60.00;;;;;;5046915;28;20033;-61
2021/08/02 10:58:34;;;;;;;4.80;1.30;;;22.10;59.90;;;;;;5050659;28;20044;-61
2021/08/02 11:01:05;;;;;;;3.45;1.10;;;22.10;59.90;;;;;;5036396;28;20025;-60
2021/08/02 11:03:38;;;;;;;3.53;1.15;;;22.20;59.90;;;;;;5043577;28;20033;-61
2021/08/02 11:06:09;;;;;;;4.22;1.40;;;22.20;59.90;;;;;;5047566;28;20021;-61
2021/08/02 11:08:42;;;;;;;5.03;1.40;;;22.10;59.60;;;;;;5040141;28;20033;-62
2021/08/02 11:11:09;;;;;;;2.22;1.02;;;22.10;59.20;;;;;;5037650;28;20025;-62
2021/08/02 11:13:35;;;;;;;6.18;2.80;;;22.10;59.10;;;;;;5047898;28;20199;-61
2021/08/02 11:16:00;;;;;;;3.40;1.02;;;22.10;58.90;;;;;;5051036;28;20107;-62
2021/08/02 11:18:27;;;;;;;4.60;1.20;;;22.20;58.80;;;;;;5056217;28;20042;-65
2021/08/02 11:20:54;;;;;;;9.55;1.42;;;22.20;59.60;;;;;;5035254;28;20025;-65
2021/08/02 11:23:34;;;;;;;3.78;1.30;;;22.20;59.50;;;;;;5033173;28;20041;-66
2021/08/02 11:26:07;;;;;;;3.05;1.25;;;22.30;59.40;;;;;;5046372;28;20033;-65
2021/08/02 11:28:45;;;;;;;5.80;1.40;;;22.40;59.30;;;;;;5049324;28;20025;-65
2021/08/02 11:31:12;;;;;;;4.25;1.27;;;22.30;59.30;;;;;;5028595;28;20114;-62
2021/08/02 11:33:42;;;;;;;3.03;1.20;;;22.40;59.30;;;;;;5045241;28;20037;-65
2021/08/02 11:36:21;;;;;;;5.68;1.45;;;22.40;59.30;;;;;;5064648;28;20025;-67
2021/08/02 11:38:48;;;;;;;5.95;1.70;;;22.40;59.20;;;;;;5059610;28;20365;-66
2021/08/02 11:41:25;;;;;;;3.38;1.10;;;22.40;59.20;;;;;;5036102;28;20477;-66
2021/08/02 11:43:51;;;;;;;2.80;1.02;;;22.40;59.30;;;;;;5046062;28;20052;-70
2021/08/02 11:46:17;;;;;;;3.30;1.30;;;22.30;59.20;;;;;;5052689;28;20033;-71
2021/08/02 11:48:44;;;;;;;3.22;1.00;;;22.40;59.20;;;;;;5068208;28;20073;-73
2021/08/02 11:51:12;;;;;;;3.38;1.10;;;22.40;59.10;;;;;;5033113;28;20026;-69
2021/08/02 11:53:38;;;;;;;2.80;1.30;;;22.40;59.00;;;;;;5047014;28;20393;-69
2021/08/02 11:56:04;;;;;;;4.65;1.00;;;22.40;59.10;;;;;;5040340;28;20037;-68
2021/08/02 11:58:42;;;;;;;2.38;1.13;;;22.40;58.90;;;;;;5042735;28;20035;-74
2021/08/02 12:01:09;;;;;;;5.20;1.20;;;22.50;59.00;;;;;;5040031;28;20024;-74
2021/08/02 12:03:35;;;;;;;3.40;1.10;;;22.40;58.90;;;;;;5044275;28;20396;-73
2021/08/02 12:06:02;;;;;;;2.38;1.00;;;22.40;58.90;;;;;;5060313;28;20028;-72
2021/08/02 12:08:28;;;;;;;2.97;1.20;;;22.50;58.80;;;;;;5053027;28;20025;-70
2021/08/02 12:11:04;;;;;;;3.55;1.20;;;22.50;58.80;;;;;;5048277;28;20032;-69
2021/08/02 12:13:47;;;;;;;2.42;1.02;;;22.50;58.60;;;;;;5044562;28;20508;-68
2021/08/02 12:16:28;;;;;;;3.20;1.27;;;22.60;58.50;;;;;;5052645;28;20033;-69
2021/08/02 12:19:10;;;;;;;3.47;1.20;;;22.60;58.40;;;;;;5035228;28;20287;-67
2021/08/02 12:21:37;;;;;;;4.18;1.08;;;22.70;58.40;;;;;;5043506;28;20032;-68
2021/08/02 12:24:16;;;;;;;5.32;1.20;;;22.60;58.30;;;;;;5040490;28;20032;-69
2021/08/02 12:26:56;;;;;;;1.92;0.90;;;22.60;58.30;;;;;;5041360;28;20151;-69
2021/08/02 12:29:27;;;;;;;5.40;1.88;;;22.60;58.20;;;;;;5041558;28;20043;-68
2021/08/02 12:32:03;;;;;;;2.40;1.00;;;22.70;58.20;;;;;;5024594;28;20031;-67
2021/08/02 12:34:29;;;;;;;4.28;1.13;;;22.70;58.20;;;;;;5043237;28;20037;-69
2021/08/02 12:36:56;;;;;;;3.33;1.17;;;22.70;58.20;;;;;;5053746;28;20033;-70
2021/08/02 12:39:25;;;;;;;2.47;1.00;;;22.70;58.10;;;;;;5047825;28;20031;-70
2021/08/02 12:41:51;;;;;;;3.85;1.13;;;22.70;58.10;;;;;;5019020;28;20017;-69
2021/08/02 12:44:16;;;;;;;4.90;1.40;;;22.70;58.20;;;;;;5051244;28;20044;-71
2021/08/02 12:46:42;;;;;;;3.90;1.17;;;22.70;58.20;;;;;;5050767;28;20377;-71
2021/08/02 12:49:07;;;;;;;4.80;1.13;;;22.70;58.20;;;;;;5041924;28;20060;-69
2021/08/02 12:51:33;;;;;;;3.67;1.15;;;22.70;58.20;;;;;;5039362;28;20071;-73